Time;durP1;ratioP1;P1;durP2;ratioP2;P2;SDS_P1;SDS_P2;PMS_P1;PMS_P2;Temp;Humidity;BMP_temperature;BMP_pressure;BME280_temperature;BME280_humidity;BME280_pressure;Samples;Min_cycle;Max_cycle;Signal;HPM_P1;HPM_P2
2022/01/22 00:01:15;;;;;;;22.08;4.15;;;;;;;8.52;63.33;103418.94;5218189;28;20762;-46
2022/01/22 00:03:49;;;;;;;18.13;4.93;;;;;;;8.55;63.30;103433.75;5210636;28;20494;-45
2022/01/22 00:06:22;;;;;;;20.67;5.22;;;;;;;8.55;63.43;103423.22;5211665;28;20423;-45
2022/01/22 00:08:54;;;;;;;22.88;5.38;;;;;;;8.49;63.15;103399.81;5210349;28;20538;-44
2022/01/22 00:11:34;;;;;;;22.00;4.88;;;;;;;8.59;63.41;103414.22;5212130;28;20471;-46
2022/01/22 00:14:25;;;;;;;15.07;4.22;;;;;;;8.58;63.25;103412.53;5215074;28;20485;-45
2022/01/22 00:17:00;;;;;;;18.95;4.78;;;;;;;8.58;63.28;103417.81;5218948;28;20465;-44
2022/01/22 00:19:34;;;;;;;15.23;4.28;;;;;;;8.58;63.32;103404.63;5214326;28;20518;-48
2022/01/22 00:22:07;;;;;;;25.10;4.80;;;;;;;8.52;63.38;103387.34;5210561;28;20465;-44
2022/01/22 00:24:40;;;;;;;20.83;4.97;;;;;;;8.60;63.38;103400.13;5207748;28;21087;-46
2022/01/22 00:27:12;;;;;;;24.40;4.90;;;;;;;8.54;63.19;103403.03;5217886;28;21982;-45
2022/01/22 00:29:45;;;;;;;24.88;4.50;;;;;;;8.58;63.46;103412.53;5212913;28;20840;-45
2022/01/22 00:32:17;;;;;;;21.33;4.60;;;;;;;8.57;63.42;103416.06;5200142;28;20793;-45
2022/01/22 00:34:51;;;;;;;18.63;4.60;;;;;;;8.56;63.39;103414.38;5218045;28;20414;-49
2022/01/22 00:37:24;;;;;;;21.90;5.68;;;;;;;8.53;63.54;103419.78;5204158;28;20923;-45
2022/01/22 00:39:56;;;;;;;27.20;5.00;;;;;;;8.41;63.73;103388.78;5213748;28;20437;-48
2022/01/22 00:42:31;;;;;;;19.30;5.07;;;;;;;8.51;63.49;103405.81;5206560;28;20446;-48
2022/01/22 00:45:04;;;;;;;19.60;4.93;;;;;;;8.54;63.45;103405.69;5218345;28;21884;-47
2022/01/22 00:47:37;;;;;;;22.20;4.72;;;;;;;8.54;63.51;103405.69;5185360;28;20756;-47
2022/01/22 00:50:15;;;;;;;28.92;5.70;;;;;;;8.54;63.54;103405.69;5207385;28;20862;-44
2022/01/22 00:52:48;;;;;;;26.25;5.15;;;;;;;8.55;63.50;103407.41;5214820;28;20507;-46
2022/01/22 00:55:21;;;;;;;20.50;5.03;;;;;;;8.57;63.51;103416.06;5224020;28;20498;-46
2022/01/22 00:57:53;;;;;;;16.80;4.57;;;;;;;8.58;63.46;103402.00;5210664;28;20454;-46
2022/01/22 01:00:26;;;;;;;16.90;5.05;;;;;;;8.59;63.41;103406.31;5220942;28;20492;-48
2022/01/22 01:02:58;;;;;;;20.90;5.72;;;;;;;8.59;63.53;103398.41;5209018;28;20775;-45
2022/01/22 01:05:32;;;;;;;22.80;5.07;;;;;;;8.59;63.53;103403.69;5216046;28;20919;-45
2022/01/22 01:08:06;;;;;;;20.58;5.20;;;;;;;8.61;63.52;103406.22;5216894;28;20419;-48
2022/01/22 01:10:38;;;;;;;19.02;4.72;;;;;;;8.60;63.61;103410.66;5210925;28;20432;-46
2022/01/22 01:13:13;;;;;;;23.08;5.03;;;;;;;8.53;63.42;103398.72;5213933;28;20948;-46
2022/01/22 01:15:57;;;;;;;22.38;4.53;;;;;;;8.61;63.46;103401.84;5215824;28;20439;-50
2022/01/22 01:32:53;;;;;;;20.02;4.32;;;;;;;8.59;63.60;103403.69;5210869;28;20397;-45
2022/01/22 01:35:27;;;;;;;20.85;4.22;;;;;;;8.54;63.80;103403.03;5211936;28;20414;-44
2022/01/22 01:38:02;;;;;;;21.42;4.85;;;;;;;8.57;63.83;103405.53;5216177;28;20413;-44
2022/01/22 01:40:38;;;;;;;22.48;4.72;;;;;;;8.57;63.82;103412.59;5218063;28;20923;-45
2022/01/22 01:43:19;;;;;;;17.20;3.65;;;;;;;8.53;63.73;103406.63;5207262;28;20394;-45
2022/01/22 01:45:52;;;;;;;19.88;4.18;;;;;;;8.59;63.75;103418.66;5213943;28;20427;-46
2022/01/22 01:48:29;;;;;;;14.60;4.25;;;;;;;8.57;63.83;103413.44;5210827;28;20836;-46
2022/01/22 01:51:01;;;;;;;10.95;4.10;;;;;;;8.58;63.94;103412.53;5210084;28;20428;-46
2022/01/22 01:53:49;;;;;;;16.75;4.07;;;;;;;8.60;63.87;103410.66;5218104;28;20442;-46
2022/01/22 01:59:19;;;;;;;18.73;4.10;;;;;;;8.58;63.95;103416.91;5214918;28;20411;-45
2022/01/22 02:01:52;;;;;;;12.82;4.20;;;;;;;8.58;63.93;103417.81;5194745;28;20760;-46
2022/01/22 02:04:24;;;;;;;18.13;4.43;;;;;;;8.60;63.88;103413.28;5210000;28;20412;-48
2022/01/22 02:06:57;;;;;;;14.85;4.40;;;;;;;8.62;63.98;103413.22;5216320;28;20485;-45
2022/01/22 02:09:31;;;;;;;10.70;3.28;;;;;;;8.66;63.75;103415.63;5214876;28;20492;-45
2022/01/22 02:12:10;;;;;;;17.33;3.75;;;;;;;8.61;63.88;103412.38;5214316;28;20523;-48
2022/01/22 02:23:36;;;;;;;14.55;3.47;;;;;;;8.64;63.81;103390.28;5211860;28;20760;-47
2022/01/22 02:26:09;;;;;;;17.42;3.92;;;;;;;8.75;63.82;103412.56;5188939;28;20397;-51
2022/01/22 02:28:47;;;;;;;12.85;3.28;;;;;;;8.78;63.68;103412.41;5185933;28;20421;-46
2022/01/22 02:31:27;;;;;;;16.98;3.25;;;;;;;8.75;63.74;103404.66;5197191;28;20407;-46
2022/01/22 02:34:09;;;;;;;16.13;3.95;;;;;;;8.76;63.61;103411.66;5186187;28;20914;-48
2022/01/22 02:36:46;;;;;;;18.02;3.35;;;;;;;8.81;63.79;103415.81;5184369;28;20405;-47
2022/01/22 02:39:24;;;;;;;20.08;4.38;;;;;;;8.78;63.66;103407.13;5187807;28;20481;-45
2022/01/22 02:41:56;;;;;;;20.13;3.92;;;;;;;8.81;63.67;103413.19;5196918;28;20417;-47
2022/01/22 02:44:34;;;;;;;22.58;4.35;;;;;;;8.81;63.71;103413.19;5187589;28;20526;-48
2022/01/22 02:47:07;;;;;;;20.58;4.57;;;;;;;8.84;63.75;103418.31;5180321;28;20406;-49
2022/01/22 02:49:40;;;;;;;18.70;4.18;;;;;;;8.84;63.71;103413.03;5192463;28;20429;-49
2022/01/22 02:52:13;;;;;;;18.25;4.03;;;;;;;8.84;63.49;103407.78;5192283;28;20431;-46
2022/01/22 02:54:47;;;;;;;20.30;4.32;;;;;;;8.84;63.77;103418.31;5189352;28;20503;-46
2022/01/22 02:57:20;;;;;;;21.40;4.00;;;;;;;8.84;63.70;103416.53;5183652;28;20493;-48
2022/01/22 02:59:52;;;;;;;17.63;4.15;;;;;;;8.81;63.73;103403.50;5195788;28;20490;-46
2022/01/22 03:02:24;;;;;;;19.73;3.65;;;;;;;8.87;63.73;103404.97;5194491;28;20768;-45
2022/01/22 03:04:57;;;;;;;13.55;3.75;;;;;;;8.87;63.75;103407.63;5183523;28;20894;-46
2022/01/22 03:07:29;;;;;;;23.73;5.07;;;;;;;8.88;63.64;103415.44;5192056;28;20520;-45
2022/01/22 03:10:04;;;;;;;13.20;3.72;;;;;;;8.89;63.76;103405.78;5190801;28;20439;-45
2022/01/22 03:13:09;;;;;;;17.42;4.50;;;;;;;8.91;63.74;103417.06;5191667;28;20403;-46
2022/01/22 03:21:35;;;;;;;14.35;3.90;;;;;;;8.90;63.73;103413.59;5179950;28;20414;-48
2022/01/22 03:27:21;;;;;;;19.08;3.90;;;;;;;8.88;63.81;103419.84;5194559;28;20433;-50
2022/01/22 03:29:54;;;;;;;19.95;4.03;;;;;;;8.89;63.92;103421.59;5192390;28;20876;-56
2022/01/22 03:32:33;;;;;;;19.98;4.40;;;;;;;8.87;63.92;103418.16;5195518;28;20510;-46
2022/01/22 03:35:11;;;;;;;24.87;5.40;;;;;;;8.88;63.80;103419.84;5189726;28;20415;-51
2022/01/22 03:37:44;;;;;;;22.00;4.50;;;;;;;8.87;63.93;103412.88;5198050;28;20401;-47
2022/01/22 03:40:17;;;;;;;16.33;4.33;;;;;;;8.85;63.87;103412.09;5191295;28;20401;-56
2022/01/22 03:42:52;;;;;;;18.48;4.70;;;;;;;8.88;63.95;103425.13;5188501;28;22526;-46
2022/01/22 03:45:25;;;;;;;24.23;4.95;;;;;;;8.87;63.98;103412.88;5189286;28;21375;-45
2022/01/22 03:47:57;;;;;;;19.27;3.90;;;;;;;8.88;63.72;103419.84;5190816;28;20653;-45
2022/01/22 03:50:30;;;;;;;20.52;3.67;;;;;;;8.78;64.18;103409.75;5191182;28;20423;-54
2022/01/22 03:53:02;;;;;;;21.35;4.20;;;;;;;8.83;64.25;103421.88;5192131;28;20517;-48
2022/01/22 03:55:45;;;;;;;18.95;4.07;;;;;;;8.84;64.35;103431.47;5193912;28;20426;-49
2022/01/22 03:58:19;;;;;;;14.68;3.90;;;;;;;8.83;64.23;103427.16;5187589;28;20403;-47
2022/01/22 04:01:05;;;;;;;16.58;4.63;;;;;;;8.78;64.46;103425.56;5188130;28;20925;-46
2022/01/22 04:03:40;;;;;;;13.73;3.47;;;;;;;8.74;64.35;103433.72;5195313;28;20410;-45
2022/01/22 04:06:41;;;;;;;14.23;4.32;;;;;;;8.72;64.73;103431.13;5198874;28;20487;-46
2022/01/22 04:09:15;;;;;;;14.40;4.00;;;;;;;8.67;64.79;103433.16;5184383;28;20410;-48
2022/01/22 04:11:48;;;;;;;14.38;3.40;;;;;;;8.68;64.72;103428.75;5191009;28;20905;-45
2022/01/22 04:14:25;;;;;;;15.65;3.83;;;;;;;8.67;64.91;103427.00;5198648;28;20946;-49
2022/01/22 04:17:07;;;;;;;14.95;3.47;;;;;;;8.67;64.87;103427.00;5197258;28;20460;-45
2022/01/22 04:25:24;;;;;;;12.27;3.33;;;;;;;8.70;64.85;103438.28;5203873;28;20417;-47
2022/01/22 04:27:57;;;;;;;14.02;3.35;;;;;;;8.71;64.86;103439.97;5195298;28;20758;-49
2022/01/22 04:30:32;;;;;;;17.85;4.15;;;;;;;8.71;64.75;103437.34;5195980;28;20772;-46
2022/01/22 04:33:07;;;;;;;14.48;4.45;;;;;;;8.73;64.82;103427.59;5188396;28;20422;-49
2022/01/22 04:35:39;;;;;;;14.38;3.40;;;;;;;8.78;64.82;103430.84;5197261;28;20431;-51
2022/01/22 04:38:12;;;;;;;16.15;3.78;;;;;;;8.76;64.80;103435.34;5189226;28;20447;-48
2022/01/22 04:40:44;;;;;;;17.92;3.85;;;;;;;8.77;64.70;103423.88;5185346;28;20444;-49
2022/01/22 04:43:17;;;;;;;11.88;3.58;;;;;;;8.82;64.75;103428.06;5195980;28;20838;-46
2022/01/22 04:46:06;;;;;;;11.00;3.65;;;;;;;8.82;64.76;103426.28;5196380;28;20526;-45
2022/01/22 04:48:53;;;;;;;11.83;3.37;;;;;;;8.78;64.73;103420.31;5190101;28;20462;-46
2022/01/22 04:57:05;;;;;;;17.75;4.13;;;;;;;8.75;64.66;103417.81;5195017;28;20515;-49
2022/01/22 04:59:37;;;;;;;15.77;3.63;;;;;;;8.80;64.45;103414.13;5194852;28;20441;-46
2022/01/22 05:02:11;;;;;;;14.95;3.53;;;;;;;8.79;64.65;103410.59;5192989;28;20421;-45
2022/01/22 05:04:44;;;;;;;14.40;3.28;;;;;;;8.69;64.48;103407.56;5188305;28;20418;-46
2022/01/22 05:07:16;;;;;;;13.88;4.18;;;;;;;8.80;64.52;103417.59;5188174;28;20862;-47
2022/01/22 05:09:49;;;;;;;11.65;4.20;;;;;;;8.84;64.59;103424.44;5185770;28;20428;-46
2022/01/22 05:12:21;;;;;;;9.50;3.22;;;;;;;8.69;64.62;103410.22;5189461;28;20573;-48
2022/01/22 05:14:54;;;;;;;13.27;3.53;;;;;;;8.75;64.60;103430.16;5185244;28;20423;-46
2022/01/22 05:17:27;;;;;;;11.68;3.17;;;;;;;8.76;64.64;103416.91;5193369;28;20506;-45
2022/01/22 05:20:06;;;;;;;12.63;3.13;;;;;;;8.81;64.72;103435.13;5189260;28;20502;-45
2022/01/22 05:22:53;;;;;;;16.27;3.50;;;;;;;8.81;64.64;103429.00;5186147;28;20423;-46
2022/01/22 05:25:32;;;;;;;14.60;3.35;;;;;;;8.81;64.68;103419.31;5185008;28;20498;-48
2022/01/22 05:31:07;;;;;;;17.77;4.15;;;;;;;8.81;64.57;103429.00;5167574;28;20550;-45
2022/01/22 05:39:21;;;;;;;10.43;3.00;;;;;;;8.77;64.55;103413.34;5197053;28;20468;-45
2022/01/22 05:41:53;;;;;;;11.73;3.35;;;;;;;8.76;64.55;103416.91;5191114;28;21828;-47
2022/01/22 05:44:26;;;;;;;20.50;3.60;;;;;;;8.77;64.52;103423.88;5190095;28;20481;-48
2022/01/22 05:47:03;;;;;;;11.38;3.22;;;;;;;8.80;64.41;103417.59;5188345;28;20468;-46
2022/01/22 05:49:41;;;;;;;9.93;3.05;;;;;;;8.78;64.32;103420.31;5188602;28;20426;-53
2022/01/22 05:52:19;;;;;;;14.07;3.45;;;;;;;8.82;64.39;103425.44;5191805;28;20410;-46
2022/01/22 05:55:13;;;;;;;10.85;3.30;;;;;;;8.84;64.41;103423.59;5187666;28;20425;-45
2022/01/22 06:00:35;;;;;;;16.38;4.15;;;;;;;8.80;64.27;103417.59;5192097;28;20478;-46
2022/01/22 06:03:07;;;;;;;15.95;4.38;;;;;;;8.83;64.13;103437.69;5186601;28;20493;-45
2022/01/22 06:05:41;;;;;;;10.03;2.80;;;;;;;8.82;64.25;103436.81;5200497;28;20770;-45
2022/01/22 06:08:16;;;;;;;12.65;3.38;;;;;;;8.89;64.27;103440.03;5189510;28;20510;-47
2022/01/22 06:10:54;;;;;;;17.13;3.03;;;;;;;8.90;64.05;103437.31;5188671;28;20500;-48
2022/01/22 06:13:33;;;;;;;12.25;2.75;;;;;;;8.91;64.15;103451.34;5190705;28;20443;-47
2022/01/22 06:16:05;;;;;;;11.82;3.88;;;;;;;8.90;64.07;103447.84;5183543;28;20728;-48
2022/01/22 06:18:38;;;;;;;13.65;3.35;;;;;;;8.92;64.11;103448.63;5186659;28;20434;-48
2022/01/22 06:21:12;;;;;;;15.57;3.55;;;;;;;8.94;64.12;103451.19;5191968;28;20411;-46
2022/01/22 06:23:45;;;;;;;23.27;4.25;;;;;;;8.95;64.04;103455.50;5186609;28;20413;-46
2022/01/22 06:26:18;;;;;;;17.88;3.78;;;;;;;8.92;64.00;103460.94;5195942;28;20409;-46
2022/01/22 06:28:50;;;;;;;16.58;3.75;;;;;;;8.90;64.05;103460.19;5196200;28;20828;-44
2022/01/22 06:31:23;;;;;;;20.60;3.37;;;;;;;8.92;64.04;103474.09;5176948;28;20413;-47
2022/01/22 06:33:55;;;;;;;14.05;3.40;;;;;;;8.93;64.08;103476.69;5195871;28;20469;-46
2022/01/22 06:36:30;;;;;;;10.82;2.95;;;;;;;8.89;64.16;103469.03;5191253;28;20429;-49
2022/01/22 06:39:13;;;;;;;14.17;3.93;;;;;;;8.89;64.01;103474.28;5190034;28;20499;-55
2022/01/22 06:41:45;;;;;;;12.02;3.28;;;;;;;8.87;64.13;103476.13;5178382;28;20502;-48
2022/01/22 06:44:20;;;;;;;9.27;3.25;;;;;;;8.78;64.14;103467.72;5189937;28;20433;-46
2022/01/22 06:46:55;;;;;;;20.50;5.00;;;;;;;8.83;64.23;103472.81;5193775;28;20452;-46
2022/01/22 06:49:27;;;;;;;18.35;3.90;;;;;;;8.85;64.20;103476.19;5191862;28;20432;-45
2022/01/22 06:52:01;;;;;;;13.70;2.72;;;;;;;8.85;64.13;103480.63;5198788;28;20431;-44
2022/01/22 06:54:34;;;;;;;17.87;3.40;;;;;;;8.83;64.19;103480.72;5202536;28;20500;-46
2022/01/22 06:57:06;;;;;;;16.50;3.92;;;;;;;8.80;64.25;103480.00;5189957;28;20484;-45
2022/01/22 06:59:39;;;;;;;15.65;3.40;;;;;;;8.81;64.38;103481.69;5199427;28;20409;-49
2022/01/22 07:02:13;;;;;;;17.60;3.72;;;;;;;8.83;64.37;103477.22;5200344;28;20421;-47
2022/01/22 07:04:46;;;;;;;12.20;3.60;;;;;;;8.77;64.17;103467.81;5198815;28;20493;-49
2022/01/22 07:07:19;;;;;;;17.42;3.85;;;;;;;8.86;64.04;103484.97;5190914;28;20906;-49
2022/01/22 07:09:52;;;;;;;12.15;3.40;;;;;;;8.83;64.05;103485.13;5193162;28;20506;-48
2022/01/22 07:12:24;;;;;;;13.07;3.40;;;;;;;8.79;64.22;103479.13;5191775;28;20423;-49
2022/01/22 07:14:56;;;;;;;16.05;3.33;;;;;;;8.77;64.34;103481.84;5197338;28;20454;-46
2022/01/22 07:17:34;;;;;;;13.45;3.53;;;;;;;8.68;64.29;103463.00;5192710;28;20425;-49
2022/01/22 07:20:14;;;;;;;16.30;4.23;;;;;;;8.76;64.33;103476.63;5186626;28;20413;-48
2022/01/22 07:22:51;;;;;;;10.55;3.22;;;;;;;8.66;64.40;103457.78;5189536;28;20451;-54
2022/01/22 07:25:23;;;;;;;11.43;3.45;;;;;;;8.72;64.33;103475.94;5193740;28;20434;-46
2022/01/22 07:27:56;;;;;;;9.40;2.83;;;;;;;8.70;64.45;103480.44;5187968;28;20425;-46
2022/01/22 07:30:30;;;;;;;12.85;2.97;;;;;;;8.67;64.41;103488.50;5190971;28;20514;-48
2022/01/22 07:33:03;;;;;;;14.25;3.47;;;;;;;8.69;64.47;103478.72;5192872;28;20766;-48
2022/01/22 07:35:35;;;;;;;10.00;3.10;;;;;;;8.43;64.25;103418.53;5183092;28;20564;-44
2022/01/22 07:38:09;;;;;;;14.23;3.65;;;;;;;8.78;64.17;103467.72;5176915;28;20418;-45
2022/01/22 07:40:42;;;;;;;11.23;3.38;;;;;;;8.79;64.13;103463.31;5182934;28;20451;-50
2022/01/22 07:43:16;;;;;;;10.35;3.20;;;;;;;8.84;64.01;103468.38;5192615;28;20408;-48
2022/01/22 07:45:48;;;;;;;12.55;3.33;;;;;;;8.82;64.16;103471.06;5185935;28;20897;-50
2022/01/22 07:48:21;;;;;;;14.70;3.78;;;;;;;8.83;63.88;103464.91;5223574;28;20954;-46
2022/01/22 07:50:53;;;;;;;12.45;4.10;;;;;;;8.91;63.97;103472.41;5213138;28;20445;-48
2022/01/22 07:53:27;;;;;;;13.30;3.20;;;;;;;8.90;63.94;103468.09;5208953;28;20490;-45
2022/01/22 07:55:59;;;;;;;14.75;3.30;;;;;;;8.89;63.99;103469.03;5203931;28;20409;-45
2022/01/22 07:58:32;;;;;;;12.63;3.55;;;;;;;8.89;64.01;103471.66;5210211;28;20437;-51
2022/01/22 08:01:04;;;;;;;13.65;3.95;;;;;;;8.88;63.97;103464.66;5211479;28;20402;-46
2022/01/22 08:03:37;;;;;;;13.15;2.95;;;;;;;8.81;63.82;103455.34;5210351;28;20513;-46
2022/01/22 08:06:09;;;;;;;18.45;3.95;;;;;;;8.89;63.97;103469.03;5200693;28;20397;-45
2022/01/22 08:08:43;;;;;;;11.38;2.95;;;;;;;8.90;63.92;103460.19;5191301;28;20395;-44
2022/01/22 08:11:15;;;;;;;15.93;3.57;;;;;;;8.90;63.98;103460.19;5192349;28;20533;-46
2022/01/22 08:13:48;;;;;;;8.50;3.10;;;;;;;8.90;63.85;103455.75;5201057;28;20494;-46
2022/01/22 08:16:20;;;;;;;11.35;3.63;;;;;;;8.89;63.97;103456.69;5200215;28;20443;-45
2022/01/22 08:18:52;;;;;;;17.05;4.35;;;;;;;8.92;64.03;103463.56;5200960;28;20427;-46
2022/01/22 08:21:25;;;;;;;21.48;3.72;;;;;;;8.94;63.94;103464.34;5204061;28;20492;-47
2022/01/22 08:23:59;;;;;;;13.33;3.37;;;;;;;8.92;63.74;103453.03;5206027;28;20409;-46
2022/01/22 08:26:36;;;;;;;9.27;3.55;;;;;;;8.98;63.79;103458.00;5171503;28;20424;-47
2022/01/22 08:29:09;;;;;;;11.55;3.05;;;;;;;8.97;63.83;103474.75;5187423;28;20426;-47
2022/01/22 08:31:52;;;;;;;13.20;3.85;;;;;;;8.32;63.83;103375.06;5187729;28;20937;-46
2022/01/22 08:37:15;;;;;;;14.20;3.58;;;;;;;8.85;64.10;103483.25;5180029;28;20407;-46
2022/01/22 08:39:49;;;;;;;11.82;3.38;;;;;;;8.83;64.14;103495.66;5187275;28;20491;-44
2022/01/22 08:42:23;;;;;;;8.75;3.38;;;;;;;8.82;64.10;103488.66;5190940;28;20957;-49
2022/01/22 08:44:56;;;;;;;12.40;3.78;;;;;;;8.84;64.01;103492.09;5191868;28;20414;-44
2022/01/22 08:47:28;;;;;;;14.60;4.33;;;;;;;8.84;64.13;103492.94;5189433;28;20491;-46
2022/01/22 08:50:01;;;;;;;8.43;3.42;;;;;;;8.83;64.04;103485.97;5192344;28;20458;-46
2022/01/22 08:52:35;;;;;;;13.57;3.70;;;;;;;8.89;64.09;103479.56;5180135;28;20439;-48
2022/01/22 08:55:11;;;;;;;8.57;4.45;;;;;;;8.92;63.88;103484.66;5188464;28;20412;-48
2022/01/22 08:57:45;;;;;;;12.25;4.38;;;;;;;8.92;64.05;103479.38;5183853;28;20969;-46
2022/01/22 09:00:20;;;;;;;8.83;3.87;;;;;;;8.90;63.98;103486.53;5183027;28;20466;-48
2022/01/22 09:02:52;;;;;;;11.95;3.60;;;;;;;8.95;63.92;103485.38;5188994;28;20423;-44
2022/01/22 09:05:31;;;;;;;9.60;4.15;;;;;;;9.01;63.74;103476.31;5191831;28;20469;-47
2022/01/22 09:08:05;;;;;;;8.48;3.70;;;;;;;9.04;63.65;103465.59;5181519;28;20432;-46
2022/01/22 09:10:39;;;;;;;15.75;3.72;;;;;;;9.14;63.94;103495.88;5183070;28;20415;-50
2022/01/22 09:13:12;;;;;;;10.93;3.77;;;;;;;9.15;63.55;103489.66;5187064;28;20473;-49
2022/01/22 09:15:45;;;;;;;8.50;3.80;;;;;;;9.14;63.83;103477.44;5183429;28;20493;-47
2022/01/22 09:18:17;;;;;;;13.32;3.60;;;;;;;9.23;63.70;103490.16;5185704;28;20502;-45
2022/01/22 09:21:02;;;;;;;9.68;3.58;;;;;;;9.29;63.47;103482.84;5186169;28;20497;-45
2022/01/22 09:23:35;;;;;;;8.73;3.13;;;;;;;9.13;63.58;103451.97;5191491;28;20426;-46
2022/01/22 09:26:09;;;;;;;14.00;3.63;;;;;;;9.33;63.51;103489.69;5195125;28;20432;-48
2022/01/22 09:28:43;;;;;;;5.68;2.80;;;;;;;9.33;63.61;103489.69;5204800;28;20483;-45
2022/01/22 09:31:15;;;;;;;6.07;2.60;;;;;;;9.38;63.56;103507.00;5206119;28;20892;-44
2022/01/22 09:33:48;;;;;;;6.68;2.90;;;;;;;9.45;63.54;103499.63;5198143;28;20411;-44
2022/01/22 09:36:20;;;;;;;8.30;2.97;;;;;;;9.47;63.62;103505.66;5205127;28;20422;-45
2022/01/22 09:38:53;;;;;;;4.05;2.50;;;;;;;9.46;63.59;103506.63;5198426;28;20438;-48
2022/01/22 09:41:28;;;;;;;6.38;3.05;;;;;;;9.43;63.62;103496.22;5187348;28;20934;-49
2022/01/22 09:44:01;;;;;;;9.07;2.80;;;;;;;9.52;63.59;103519.50;5205424;28;20515;-47
2022/01/22 09:46:33;;;;;;;7.35;2.80;;;;;;;9.54;63.45;103519.41;5200871;28;20506;-46
2022/01/22 09:49:07;;;;;;;5.72;2.50;;;;;;;9.58;63.36;103524.47;5201211;28;20409;-46
2022/01/22 09:51:40;;;;;;;12.23;2.87;;;;;;;9.65;63.32;103531.13;5195063;28;20457;-49
2022/01/22 09:54:14;;;;;;;6.80;2.55;;;;;;;9.70;63.27;103537.03;5206180;28;20526;-45
2022/01/22 09:56:47;;;;;;;6.05;3.10;;;;;;;9.64;63.09;103513.59;5201026;28;20406;-46
2022/01/22 09:59:20;;;;;;;7.32;2.50;;;;;;;9.76;62.97;103521.84;5203012;28;20433;-45
2022/01/22 10:01:52;;;;;;;9.75;2.92;;;;;;;9.90;62.89;103533.34;5200491;28;20417;-48
2022/01/22 10:04:36;;;;;;;10.32;2.70;;;;;;;9.97;62.72;103533.88;5192889;28;20433;-57
2022/01/22 10:07:17;;;;;;;8.15;2.60;;;;;;;10.02;62.70;103526.59;5208146;28;20405;-49
2022/01/22 10:09:58;;;;;;;7.53;2.65;;;;;;;10.08;62.42;103534.19;5190267;28;20896;-49
2022/01/22 10:12:44;;;;;;;8.63;2.72;;;;;;;10.11;62.50;103531.41;5208856;28;20460;-47
2022/01/22 10:15:19;;;;;;;5.13;2.50;;;;;;;10.13;62.45;103533.97;5191301;28;20488;-49
2022/01/22 10:17:53;;;;;;;6.97;2.67;;;;;;;10.16;62.45;103536.44;5209731;28;20544;-50
2022/01/22 10:20:40;;;;;;;9.35;3.13;;;;;;;10.18;62.29;103536.34;5222406;28;20443;-47
2022/01/22 10:23:23;;;;;;;8.87;3.27;;;;;;;10.16;62.28;103534.66;5213047;28;20479;-47
2022/01/22 10:26:03;;;;;;;9.95;3.22;;;;;;;10.21;62.17;103546.75;5207715;28;20422;-46
2022/01/22 10:28:45;;;;;;;10.90;3.20;;;;;;;10.22;62.13;103540.53;5210477;28;20418;-46
2022/01/22 10:31:22;;;;;;;10.30;3.33;;;;;;;10.19;61.97;103532.78;5190428;28;20533;-45
2022/01/22 10:34:09;;;;;;;11.27;3.05;;;;;;;10.23;62.16;103536.97;5201711;28;20439;-46
2022/01/22 10:36:56;;;;;;;7.13;2.60;;;;;;;10.16;62.09;103516.19;5201848;28;20415;-46
2022/01/22 10:39:30;;;;;;;7.30;3.00;;;;;;;10.23;62.12;103532.53;5210854;28;20817;-50
2022/01/22 10:42:18;;;;;;;8.63;3.00;;;;;;;10.20;62.00;103530.06;5200510;28;20917;-46
2022/01/22 10:44:59;;;;;;;14.30;3.83;;;;;;;10.25;61.96;103532.44;5198399;28;20512;-47
2022/01/22 10:47:34;;;;;;;11.05;3.72;;;;;;;10.26;62.06;103536.81;5196063;28;20495;-47
2022/01/22 10:50:20;;;;;;;7.90;2.85;;;;;;;10.24;62.09;103536.88;5201562;28;20407;-49
2022/01/22 10:52:56;;;;;;;9.40;2.90;;;;;;;10.20;62.00;103543.28;5200032;28;20493;-46
2022/01/22 10:55:28;;;;;;;7.63;2.90;;;;;;;10.24;61.99;103542.16;5188651;28;20425;-46
2022/01/22 10:58:07;;;;;;;7.60;2.78;;;;;;;10.23;62.02;103537.81;5194569;28;20411;-46
2022/01/22 11:00:40;;;;;;;9.90;3.17;;;;;;;10.23;61.97;103544.91;5193896;28;20425;-47
2022/01/22 11:03:23;;;;;;;10.48;3.15;;;;;;;10.14;61.94;103533.88;5207641;28;20476;-49
2022/01/22 11:05:58;;;;;;;10.25;3.22;;;;;;;10.22;61.85;103559.00;5189023;28;20411;-48
2022/01/22 11:08:31;;;;;;;12.98;3.42;;;;;;;10.20;61.98;103558.25;5199640;28;20976;-51
2022/01/22 11:11:04;;;;;;;10.23;3.65;;;;;;;10.22;61.84;103557.25;5194838;28;20466;-48
2022/01/22 11:13:36;;;;;;;10.25;3.17;;;;;;;10.23;61.75;103555.47;5201950;28;20405;-49
2022/01/22 11:16:15;;;;;;;9.68;2.78;;;;;;;10.28;61.72;103558.72;5204844;28;20484;-52
2022/01/22 11:18:51;;;;;;;9.20;2.63;;;;;;;10.26;61.75;103544.75;5196022;28;20487;-46
2022/01/22 11:21:25;;;;;;;11.30;2.85;;;;;;;10.31;61.77;103542.72;5200627;28;20409;-57
2022/01/22 11:23:57;;;;;;;5.90;2.90;;;;;;;10.38;61.68;103552.03;5201949;28;20410;-49
2022/01/22 11:26:30;;;;;;;7.28;3.47;;;;;;;10.37;61.63;103553.84;5193269;28;20496;-47
2022/01/22 11:29:03;;;;;;;10.93;3.00;;;;;;;10.36;61.79;103546.81;5195219;28;20489;-49
2022/01/22 11:31:38;;;;;;;13.85;3.40;;;;;;;10.37;61.64;103542.38;5181344;28;20428;-47
2022/01/22 11:34:10;;;;;;;8.70;3.20;;;;;;;10.39;61.44;103529.97;5204089;28;20418;-47
2022/01/22 11:36:52;;;;;;;12.98;3.17;;;;;;;10.43;61.67;103539.41;5198674;28;20491;-47
2022/01/22 11:39:26;;;;;;;11.63;2.63;;;;;;;10.23;61.52;103505.28;5192692;28;20876;-48
2022/01/22 11:41:59;;;;;;;10.23;3.42;;;;;;;10.46;61.50;103541.91;5199329;28;20506;-50
2022/01/22 11:44:40;;;;;;;13.10;3.53;;;;;;;10.47;61.49;103534.84;5188708;28;20431;-49
2022/01/22 11:47:17;;;;;;;10.90;3.58;;;;;;;10.45;61.51;103540.19;5187543;28;20456;-46
2022/01/22 11:50:08;;;;;;;8.60;3.35;;;;;;;10.49;61.41;103533.81;5191671;28;20909;-48
2022/01/22 11:52:44;;;;;;;12.25;4.10;;;;;;;10.49;61.48;103536.44;5189424;28;20446;-46
2022/01/22 11:55:18;;;;;;;14.20;3.58;;;;;;;10.51;61.52;103525.81;5196165;28;20759;-48
2022/01/22 11:58:07;;;;;;;12.23;3.97;;;;;;;10.58;61.24;103535.09;5201307;28;20467;-47
2022/01/22 12:00:42;;;;;;;15.38;4.28;;;;;;;10.31;61.23;103477.56;5201842;28;20534;-46
2022/01/22 12:03:23;;;;;;;10.93;4.07;;;;;;;10.67;61.08;103539.88;5203750;28;20780;-47
2022/01/22 12:06:10;;;;;;;9.83;3.97;;;;;;;10.69;61.10;103545.94;5211331;28;20435;-48
2022/01/22 12:09:11;;;;;;;8.77;3.90;;;;;;;10.67;61.10;103544.31;5210331;28;20416;-45
2022/01/22 12:14:57;;;;;;;10.00;3.97;;;;;;;10.54;61.29;103550.28;5193828;28;20472;-49
2022/01/22 12:18:11;;;;;;;12.43;4.03;;;;;;;10.50;61.32;103547.88;5207120;28;20426;-46
2022/01/22 13:08:59;;;;;;;11.55;4.40;;;;;;;9.56;62.54;103555.34;5197416;27;20811;-50
2022/01/22 13:11:33;;;;;;;12.57;5.33;;;;;;;9.69;62.28;103555.56;5170690;28;20422;-46
2022/01/22 13:14:05;;;;;;;16.45;5.63;;;;;;;9.77;62.20;103557.84;5169140;28;20416;-47
2022/01/22 13:16:48;;;;;;;12.88;5.93;;;;;;;9.83;62.00;103553.09;5166263;28;20421;-45
2022/01/22 13:19:22;;;;;;;19.20;6.78;;;;;;;9.88;62.02;103544.97;5161565;28;20496;-49
2022/01/22 13:21:59;;;;;;;13.38;6.88;;;;;;;9.89;62.00;103546.66;5168779;28;20496;-46
2022/01/22 13:24:36;;;;;;;13.75;6.88;;;;;;;9.85;61.88;103545.13;5163818;28;20454;-45
2022/01/22 13:27:11;;;;;;;18.10;7.40;;;;;;;9.95;61.88;103562.19;5164456;28;20450;-50
2022/01/22 13:29:53;;;;;;;17.10;8.57;;;;;;;9.92;62.12;103551.78;5176897;28;20975;-46
2022/01/22 13:32:39;;;;;;;19.08;8.95;;;;;;;9.94;61.85;103557.84;5166965;28;20416;-46
2022/01/22 13:35:24;;;;;;;16.17;7.38;;;;;;;9.98;61.79;103556.75;5167186;28;20436;-51
2022/01/22 13:49:37;;;;;;;14.25;6.97;;;;;;;9.94;61.92;103544.66;5165364;28;20897;-47
2022/01/22 13:52:12;;;;;;;15.25;7.50;;;;;;;10.04;61.94;103556.44;5166550;28;20547;-45
2022/01/22 13:54:46;;;;;;;13.97;6.77;;;;;;;10.07;61.79;103556.25;5158272;28;20398;-45
2022/01/22 13:57:24;;;;;;;16.27;7.10;;;;;;;10.08;61.71;103544.75;5169846;28;20490;-45
2022/01/22 13:59:57;;;;;;;15.20;7.65;;;;;;;10.07;61.77;103544.84;5167964;28;20956;-47
2022/01/22 14:02:39;;;;;;;12.95;7.35;;;;;;;10.06;61.71;103537.84;5167010;28;20429;-46
2022/01/22 14:05:12;;;;;;;15.03;7.90;;;;;;;10.03;61.77;103554.69;5160886;28;20765;-45
2022/01/22 14:07:47;;;;;;;19.45;7.60;;;;;;;9.91;61.87;103523.69;5164021;28;20971;-48